Time;durP1;ratioP1;P1;durP2;ratioP2;P2;SDS_P1;SDS_P2;PMS_P1;PMS_P2;Temp;Humidity;BMP_temperature;BMP_pressure;BME280_temperature;BME280_humidity;BME280_pressure;Samples;Min_cycle;Max_cycle;Signal;HPM_P1;HPM_P2
2021/04/18 00:00:21;;;;;;;12.68;7.68;;;8.10;63.20;;;;;;5113043;28;20039;-73
2021/04/18 00:02:48;;;;;;;11.60;7.40;;;8.10;63.30;;;;;;5111613;28;20048;-72
2021/04/18 00:05:15;;;;;;;12.40;8.07;;;8.00;63.30;;;;;;5109769;28;20651;-70
2021/04/18 00:07:40;;;;;;;10.30;7.00;;;8.00;63.40;;;;;;5110707;28;20090;-73
2021/04/18 00:10:07;;;;;;;12.25;7.38;;;8.00;63.40;;;;;;5065726;28;20496;-72
2021/04/18 00:12:33;;;;;;;16.23;8.93;;;8.00;63.50;;;;;;5096759;28;20434;-70
2021/04/18 00:14:58;;;;;;;14.73;7.72;;;8.00;63.60;;;;;;5058852;28;20052;-72
2021/04/18 00:17:24;;;;;;;9.95;8.07;;;7.90;63.60;;;;;;5068916;28;20521;-71
2021/04/18 00:19:50;;;;;;;12.88;7.38;;;7.90;63.70;;;;;;5068525;28;20069;-70
2021/04/18 00:22:16;;;;;;;14.32;7.63;;;7.90;63.70;;;;;;5069551;28;20071;-71
2021/04/18 00:24:41;;;;;;;13.05;8.15;;;7.90;63.70;;;;;;5068728;28;20036;-70
2021/04/18 00:27:08;;;;;;;14.68;8.50;;;7.80;63.70;;;;;;5069702;28;20063;-71
2021/04/18 00:29:34;;;;;;;10.10;7.82;;;7.80;63.80;;;;;;5056039;28;20468;-71
2021/04/18 00:31:59;;;;;;;14.40;8.43;;;7.80;63.80;;;;;;5071890;28;20053;-74
2021/04/18 00:34:27;;;;;;;12.10;7.93;;;7.70;63.80;;;;;;5073685;28;20044;-71
2021/04/18 00:36:53;;;;;;;11.48;8.00;;;7.70;63.80;;;;;;5073714;28;20036;-71
2021/04/18 00:39:19;;;;;;;17.30;9.38;;;7.70;63.80;;;;;;5072529;28;20127;-70
2021/04/18 00:41:45;;;;;;;11.70;7.45;;;7.70;63.80;;;;;;5073549;28;20484;-70
2021/04/18 00:44:11;;;;;;;11.82;8.65;;;7.70;63.80;;;;;;5071515;28;20095;-71
2021/04/18 00:46:40;;;;;;;12.95;7.43;;;7.60;64.00;;;;;;5073553;28;20078;-71
2021/04/18 00:49:06;;;;;;;11.57;8.35;;;7.60;64.10;;;;;;5054737;28;20469;-71
2021/04/18 00:51:32;;;;;;;12.02;7.90;;;7.60;64.30;;;;;;5072281;28;20148;-71
2021/04/18 00:53:58;;;;;;;14.18;8.57;;;7.60;64.40;;;;;;5073332;28;20116;-70
2021/04/18 00:56:24;;;;;;;14.82;8.00;;;7.60;64.50;;;;;;5071358;28;20051;-71
2021/04/18 00:58:49;;;;;;;10.48;8.15;;;7.50;64.60;;;;;;5038788;28;20405;-70
2021/04/18 01:01:15;;;;;;;13.73;7.88;;;7.50;65.30;;;;;;5070840;28;20036;-71
2021/04/18 01:03:41;;;;;;;11.57;8.30;;;7.50;64.60;;;;;;5072752;28;20044;-71
2021/04/18 01:06:07;;;;;;;14.13;8.35;;;7.50;64.80;;;;;;5072370;28;20050;-71
2021/04/18 01:08:33;;;;;;;12.55;7.78;;;7.50;64.80;;;;;;5074343;28;20037;-70
2021/04/18 01:10:59;;;;;;;10.70;6.95;;;7.50;65.00;;;;;;5074160;28;20472;-71
2021/04/18 01:13:24;;;;;;;10.75;7.88;;;7.40;64.80;;;;;;5056456;28;20037;-71
2021/04/18 01:15:51;;;;;;;13.25;7.88;;;7.50;65.00;;;;;;5076675;28;20539;-71
2021/04/18 01:18:17;;;;;;;12.95;8.73;;;7.40;65.80;;;;;;5058261;28;20416;-70
2021/04/18 01:20:42;;;;;;;11.63;7.55;;;7.40;65.10;;;;;;5077040;28;20061;-71
2021/04/18 01:23:08;;;;;;;12.52;7.88;;;7.40;65.20;;;;;;5076388;28;20044;-71
2021/04/18 01:25:36;;;;;;;10.93;7.88;;;7.40;65.20;;;;;;5075576;28;20055;-70
2021/04/18 01:28:02;;;;;;;12.32;7.13;;;7.40;65.20;;;;;;5059071;28;20480;-72
2021/04/18 01:30:28;;;;;;;9.55;7.00;;;7.30;65.20;;;;;;5075192;28;20045;-71
2021/04/18 01:32:56;;;;;;;11.35;7.22;;;7.40;65.30;;;;;;5076791;28;20045;-72
2021/04/18 01:35:22;;;;;;;10.50;7.18;;;7.30;65.30;;;;;;5075250;28;20036;-69
2021/04/18 01:37:48;;;;;;;10.38;7.68;;;7.30;65.20;;;;;;5076944;28;20118;-70
2021/04/18 01:40:19;;;;;;;12.07;7.68;;;7.20;65.10;;;;;;5074844;28;20063;-72
2021/04/18 01:42:45;;;;;;;10.60;7.95;;;7.20;65.10;;;;;;5058591;28;20059;-71
2021/04/18 01:45:11;;;;;;;16.15;8.55;;;7.20;65.20;;;;;;5041192;28;20098;-71
2021/04/18 01:47:37;;;;;;;13.85;9.45;;;7.20;65.20;;;;;;5076650;28;20055;-70
2021/04/18 01:50:04;;;;;;;10.95;7.78;;;7.20;65.40;;;;;;5074989;28;20049;-70
2021/04/18 01:52:30;;;;;;;13.52;8.13;;;7.20;65.50;;;;;;5074762;28;20044;-70
2021/04/18 01:54:56;;;;;;;15.13;9.18;;;7.10;65.50;;;;;;5074826;28;20040;-72
2021/04/18 01:57:22;;;;;;;13.23;8.30;;;7.20;65.70;;;;;;5075804;28;20190;-71
2021/04/18 01:59:48;;;;;;;12.73;8.10;;;7.10;65.60;;;;;;5075237;28;20412;-71
2021/04/18 02:02:14;;;;;;;12.23;8.48;;;7.10;65.70;;;;;;5075948;28;20051;-71
2021/04/18 02:04:39;;;;;;;12.15;7.60;;;7.10;65.70;;;;;;5076031;28;20420;-69
2021/04/18 02:07:06;;;;;;;12.63;8.25;;;7.10;65.70;;;;;;5075085;28;20049;-71
2021/04/18 02:09:31;;;;;;;11.15;7.55;;;7.10;65.80;;;;;;5057605;28;20044;-70
2021/04/18 02:11:58;;;;;;;10.13;7.38;;;7.10;65.90;;;;;;5076406;28;20048;-70
2021/04/18 02:14:24;;;;;;;9.40;8.07;;;7.00;65.90;;;;;;5057555;28;20048;-70
2021/04/18 02:16:50;;;;;;;10.80;8.07;;;7.00;65.90;;;;;;5074643;28;20040;-68
2021/04/18 02:19:16;;;;;;;12.48;7.50;;;7.00;66.00;;;;;;5075549;28;20085;-70
2021/04/18 02:21:42;;;;;;;11.60;7.32;;;7.00;66.10;;;;;;5074078;28;20135;-70
2021/04/18 02:24:07;;;;;;;10.13;7.82;;;7.00;66.20;;;;;;5084347;28;20044;-72
2021/04/18 02:26:33;;;;;;;11.23;7.70;;;6.90;66.20;;;;;;5098113;28;20043;-71
2021/04/18 02:28:59;;;;;;;9.85;7.25;;;6.90;66.20;;;;;;5114590;28;20046;-69
2021/04/18 02:31:26;;;;;;;12.77;8.05;;;6.90;66.30;;;;;;5114909;28;20121;-72
2021/04/18 02:33:52;;;;;;;12.50;7.82;;;6.90;66.40;;;;;;5115957;28;20131;-71
2021/04/18 02:36:18;;;;;;;10.93;8.20;;;6.90;66.50;;;;;;5113939;28;20043;-71
2021/04/18 02:38:44;;;;;;;11.93;8.27;;;6.90;66.60;;;;;;5115311;28;20047;-70
2021/04/18 02:41:10;;;;;;;11.48;8.30;;;6.90;66.50;;;;;;5114473;28;20103;-70
2021/04/18 02:43:35;;;;;;;16.17;9.05;;;6.90;66.60;;;;;;5114313;28;20399;-70
2021/04/18 02:46:01;;;;;;;13.30;8.68;;;6.80;66.50;;;;;;5115410;28;20044;-69
2021/04/18 02:48:27;;;;;;;10.73;8.02;;;6.80;66.60;;;;;;5113780;28;20047;-71
2021/04/18 02:50:53;;;;;;;10.07;8.32;;;6.80;66.60;;;;;;5114081;28;20054;-70
2021/04/18 02:53:18;;;;;;;11.23;8.02;;;6.80;66.70;;;;;;5114177;28;20465;-71
2021/04/18 02:55:44;;;;;;;12.65;8.02;;;6.80;66.60;;;;;;5115993;28;20425;-70
2021/04/18 02:58:10;;;;;;;12.68;8.57;;;6.80;66.70;;;;;;5097645;28;20039;-70
2021/04/18 03:00:36;;;;;;;13.48;8.82;;;6.80;66.80;;;;;;5115378;28;20039;-68
2021/04/18 03:03:02;;;;;;;13.35;9.35;;;6.70;66.80;;;;;;5115998;28;20326;-70
2021/04/18 03:05:28;;;;;;;9.07;7.30;;;6.70;66.90;;;;;;5115474;28;20085;-69
2021/04/18 03:07:53;;;;;;;8.95;7.07;;;6.70;67.00;;;;;;5115541;28;20047;-70
2021/04/18 03:10:19;;;;;;;9.65;7.38;;;6.70;67.00;;;;;;5096905;28;20040;-71
2021/04/18 03:12:45;;;;;;;9.13;7.10;;;6.80;67.10;;;;;;5114109;28;20398;-71
2021/04/18 03:15:11;;;;;;;9.98;6.97;;;6.80;67.00;;;;;;5113656;28;20047;-70
2021/04/18 03:17:37;;;;;;;8.68;6.65;;;6.70;66.90;;;;;;5113862;28;20055;-72
2021/04/18 03:20:04;;;;;;;7.32;6.28;;;6.70;67.00;;;;;;5115024;28;20052;-71
2021/04/18 03:22:30;;;;;;;8.32;7.10;;;6.70;66.90;;;;;;5115062;28;20049;-70
2021/04/18 03:24:55;;;;;;;9.50;7.18;;;6.70;67.00;;;;;;5097296;28;20047;-70
2021/04/18 03:27:21;;;;;;;8.80;7.03;;;6.70;67.00;;;;;;5113709;28;20112;-72
2021/04/18 03:29:47;;;;;;;7.45;6.47;;;6.60;67.00;;;;;;5113826;28;20047;-71
2021/04/18 03:32:13;;;;;;;7.20;6.25;;;6.60;67.00;;;;;;5095789;28;20047;-71
2021/04/18 03:34:38;;;;;;;9.05;6.75;;;6.60;67.20;;;;;;5114552;28;20036;-71
2021/04/18 03:37:05;;;;;;;8.68;7.15;;;6.60;67.10;;;;;;5096265;28;20036;-71
2021/04/18 03:39:30;;;;;;;8.38;6.78;;;6.50;67.20;;;;;;5095592;28;20036;-72
2021/04/18 03:41:56;;;;;;;8.25;6.90;;;6.60;67.30;;;;;;5097126;28;20065;-71
2021/04/18 03:44:22;;;;;;;9.05;6.95;;;6.50;67.30;;;;;;5079845;28;20357;-71
2021/04/18 03:46:48;;;;;;;7.20;6.07;;;6.50;67.40;;;;;;5113736;28;20036;-69
2021/04/18 03:49:13;;;;;;;7.57;6.25;;;6.50;67.40;;;;;;5114954;28;20047;-69
2021/04/18 03:51:39;;;;;;;9.10;6.40;;;6.50;67.50;;;;;;5113379;28;20070;-70
2021/04/18 03:54:05;;;;;;;8.25;6.43;;;6.40;67.40;;;;;;5115452;28;20062;-69
2021/04/18 03:56:31;;;;;;;8.05;6.28;;;6.40;67.50;;;;;;5113502;28;20150;-70
2021/04/18 03:58:56;;;;;;;10.07;6.10;;;6.40;67.50;;;;;;5096900;28;20050;-71
2021/04/18 04:01:22;;;;;;;8.02;6.18;;;6.40;67.50;;;;;;5115226;28;20039;-73
2021/04/18 04:03:48;;;;;;;8.85;6.28;;;6.40;67.50;;;;;;5120172;28;20035;-70
2021/04/18 04:06:14;;;;;;;9.55;6.50;;;6.40;67.70;;;;;;5118927;28;20039;-70
2021/04/18 04:08:40;;;;;;;6.72;6.03;;;6.40;67.50;;;;;;5117939;28;20082;-70
2021/04/18 04:11:06;;;;;;;6.82;6.03;;;6.30;67.50;;;;;;5119737;28;20036;-70
2021/04/18 04:13:31;;;;;;;6.88;5.93;;;6.30;67.50;;;;;;5117999;28;20047;-70
2021/04/18 04:15:57;;;;;;;7.25;5.57;;;6.30;67.50;;;;;;5120607;28;20066;-69
2021/04/18 04:18:23;;;;;;;7.03;6.32;;;6.30;67.50;;;;;;5118747;28;20403;-73
2021/04/18 04:20:49;;;;;;;7.07;5.47;;;6.30;67.50;;;;;;5119626;28;20066;-69
2021/04/18 04:23:14;;;;;;;6.75;5.60;;;6.20;67.50;;;;;;5119196;28;20051;-70
2021/04/18 04:25:40;;;;;;;6.15;5.55;;;6.20;67.60;;;;;;5117883;28;20048;-69
2021/04/18 04:28:09;;;;;;;6.75;5.90;;;6.30;67.60;;;;;;5119431;28;20458;-69
2021/04/18 04:30:35;;;;;;;6.00;5.35;;;6.20;67.50;;;;;;5117390;28;20119;-69
2021/04/18 04:33:01;;;;;;;6.82;5.68;;;6.20;67.50;;;;;;5101715;28;20093;-70
2021/04/18 04:35:27;;;;;;;7.97;6.15;;;6.20;67.60;;;;;;5119405;28;20044;-72
2021/04/18 04:37:53;;;;;;;7.28;6.50;;;6.10;67.60;;;;;;5120008;28;20047;-69
2021/04/18 04:40:19;;;;;;;7.28;6.05;;;6.20;67.70;;;;;;5120299;28;20107;-70
2021/04/18 04:42:45;;;;;;;7.80;7.00;;;6.20;67.80;;;;;;5118502;28;20660;-70
2021/04/18 04:45:11;;;;;;;7.95;6.35;;;6.20;67.80;;;;;;5101999;28;20468;-69
2021/04/18 04:47:37;;;;;;;8.70;7.80;;;6.10;67.90;;;;;;5119502;28;20047;-69
2021/04/18 04:50:03;;;;;;;9.27;6.68;;;6.10;67.90;;;;;;5102147;28;20036;-70
2021/04/18 04:52:29;;;;;;;7.78;6.82;;;6.10;68.00;;;;;;5118661;28;20652;-73
2021/04/18 04:54:54;;;;;;;7.75;6.45;;;6.20;68.10;;;;;;5119052;28;20039;-70
2021/04/18 04:57:21;;;;;;;6.55;5.80;;;6.20;68.10;;;;;;5117232;28;20036;-70
2021/04/18 04:59:47;;;;;;;7.05;5.72;;;6.10;68.00;;;;;;5118081;28;20057;-70
2021/04/18 05:02:13;;;;;;;6.53;5.78;;;6.10;68.10;;;;;;5117574;28;20043;-71
2021/04/18 05:04:38;;;;;;;7.68;6.20;;;6.10;68.10;;;;;;5117511;28;20092;-70
2021/04/18 05:07:04;;;;;;;7.43;6.63;;;6.10;68.10;;;;;;5117917;28;20053;-69
2021/04/18 05:09:30;;;;;;;9.10;6.35;;;6.10;68.10;;;;;;5119037;28;20150;-71
2021/04/18 05:11:55;;;;;;;8.20;6.82;;;6.10;68.20;;;;;;5118383;28;20039;-69
2021/04/18 05:14:21;;;;;;;7.70;6.72;;;6.10;68.30;;;;;;5117272;28;20368;-70
2021/04/18 05:16:47;;;;;;;7.00;6.22;;;6.10;68.50;;;;;;5099610;28;20231;-69
2021/04/18 05:19:13;;;;;;;8.50;6.45;;;6.10;68.40;;;;;;5115895;28;20047;-70
2021/04/18 05:21:38;;;;;;;8.10;6.75;;;6.10;68.40;;;;;;5115966;28;20216;-69
2021/04/18 05:24:05;;;;;;;7.65;6.30;;;6.10;68.30;;;;;;5116656;28;20502;-69
2021/04/18 05:26:31;;;;;;;8.95;6.80;;;6.10;68.30;;;;;;5115125;28;20043;-72
2021/04/18 05:28:57;;;;;;;7.90;6.25;;;6.10;68.30;;;;;;5116724;28;20549;-70
2021/04/18 05:31:23;;;;;;;8.48;7.13;;;6.10;68.20;;;;;;5099958;28;20036;-69
2021/04/18 05:33:48;;;;;;;8.07;6.07;;;6.10;68.20;;;;;;5116386;28;20043;-69
2021/04/18 05:36:14;;;;;;;8.05;6.13;;;6.10;68.10;;;;;;5083190;28;20112;-68
2021/04/18 05:38:41;;;;;;;7.63;6.57;;;6.10;68.00;;;;;;5118007;28;20046;-69
2021/04/18 05:41:06;;;;;;;6.85;5.70;;;6.10;67.90;;;;;;5117149;28;20035;-70
2021/04/18 05:43:32;;;;;;;7.20;5.60;;;6.10;67.90;;;;;;5100311;28;20387;-73
2021/04/18 05:45:58;;;;;;;7.72;5.63;;;6.10;67.90;;;;;;5117376;28;20050;-70
2021/04/18 05:48:24;;;;;;;6.63;5.45;;;6.10;67.70;;;;;;5117149;28;20036;-69
2021/04/18 05:50:49;;;;;;;6.95;5.68;;;6.10;67.70;;;;;;5118158;28;20035;-69
2021/04/18 05:53:16;;;;;;;6.88;5.47;;;6.20;67.70;;;;;;5117849;28;20071;-69
2021/04/18 05:55:42;;;;;;;6.20;5.57;;;6.10;67.70;;;;;;5117511;28;20054;-70
2021/04/18 05:58:08;;;;;;;6.50;5.30;;;6.10;67.60;;;;;;5118621;28;20040;-69
2021/04/18 06:00:34;;;;;;;7.22;5.60;;;6.20;67.70;;;;;;5117973;28;20050;-71
2021/04/18 06:02:59;;;;;;;5.43;4.60;;;6.20;67.70;;;;;;5117813;28;20539;-70
2021/04/18 06:05:25;;;;;;;5.47;4.80;;;6.10;67.60;;;;;;5117810;28;20075;-70
2021/04/18 06:07:51;;;;;;;5.70;5.05;;;6.20;67.80;;;;;;5117091;28;20108;-69
2021/04/18 06:10:17;;;;;;;6.32;5.03;;;6.20;67.90;;;;;;5119053;28;20054;-71
2021/04/18 06:12:42;;;;;;;6.20;5.38;;;6.20;67.90;;;;;;5116982;28;20058;-71
2021/04/18 06:15:09;;;;;;;6.22;5.53;;;6.20;67.80;;;;;;5117530;28;20134;-71
2021/04/18 06:17:34;;;;;;;6.25;5.13;;;6.20;67.90;;;;;;5117160;28;20043;-72
2021/04/18 06:20:00;;;;;;;7.18;5.38;;;6.30;67.80;;;;;;5117754;28;20069;-71
2021/04/18 06:22:26;;;;;;;7.20;5.82;;;6.30;68.00;;;;;;5118357;28;20039;-69
2021/04/18 06:24:52;;;;;;;7.03;5.57;;;6.30;68.10;;;;;;5117880;28;20089;-69
2021/04/18 06:27:18;;;;;;;6.05;5.00;;;6.30;68.10;;;;;;5117487;28;20430;-70
2021/04/18 06:29:44;;;;;;;5.30;4.65;;;6.30;68.00;;;;;;5118170;28;20118;-71
2021/04/18 06:32:09;;;;;;;6.28;5.68;;;6.40;68.20;;;;;;5118645;28;20043;-70
2021/04/18 06:34:35;;;;;;;6.00;5.22;;;6.40;68.20;;;;;;5118201;28;20040;-69
2021/04/18 06:37:01;;;;;;;6.20;5.05;;;6.40;68.30;;;;;;5117939;28;20096;-70
2021/04/18 06:39:28;;;;;;;6.47;5.53;;;6.50;68.50;;;;;;5116460;28;20487;-70
2021/04/18 06:41:55;;;;;;;5.97;5.38;;;6.50;68.70;;;;;;5116632;28;20164;-71
2021/04/18 06:44:22;;;;;;;5.75;4.80;;;6.50;68.70;;;;;;5117524;28;20067;-69
2021/04/18 06:46:48;;;;;;;6.30;5.70;;;6.60;68.70;;;;;;5118001;28;20121;-70
2021/04/18 06:49:14;;;;;;;6.85;5.95;;;6.60;68.90;;;;;;5099831;28;20043;-70
2021/04/18 06:51:40;;;;;;;6.30;5.65;;;6.70;69.20;;;;;;5117931;28;20044;-73
2021/04/18 06:54:06;;;;;;;6.82;5.93;;;6.60;69.20;;;;;;5116819;28;20042;-70
2021/04/18 06:56:32;;;;;;;7.70;6.30;;;6.70;69.20;;;;;;5118292;28;20069;-70
2021/04/18 06:58:58;;;;;;;7.32;6.53;;;6.70;69.30;;;;;;5115852;28;20065;-70
2021/04/18 07:01:24;;;;;;;6.63;5.93;;;6.80;69.30;;;;;;5117829;28;20039;-70
2021/04/18 07:04:09;;;;;;;7.50;6.80;;;6.80;69.20;;;;;;5115473;28;20048;-70
2021/04/18 07:06:42;;;;;;;7.72;6.85;;;6.90;69.60;;;;;;5116734;28;20122;-70
2021/04/18 07:09:08;;;;;;;;;;;6.90;69.50;;;;;;5116432;28;20101;-70
2021/04/18 07:12:07;;;;;;;7.72;6.63;;;7.00;70.30;;;;;;5117544;28;19931;-71
2021/04/18 07:14:34;;;;;;;7.68;6.72;;;7.10;69.80;;;;;;5046098;28;20058;-71
2021/04/18 07:17:07;;;;;;;8.35;7.55;;;7.20;69.40;;;;;;5098380;28;20044;-69
2021/04/18 07:19:34;;;;;;;8.98;6.40;;;7.20;69.80;;;;;;5116392;28;20483;-70
2021/04/18 07:22:00;;;;;;;9.18;7.38;;;7.30;69.60;;;;;;5093444;28;20052;-71
2021/04/18 07:24:26;;;;;;;8.18;7.38;;;7.40;69.80;;;;;;5071067;28;20059;-70
2021/04/18 07:26:56;;;;;;;8.48;7.40;;;7.40;70.00;;;;;;5106956;28;20090;-70
2021/04/18 07:29:22;;;;;;;8.57;7.68;;;7.50;70.30;;;;;;5107880;28;20539;-71
2021/04/18 07:31:48;;;;;;;9.15;8.15;;;7.70;70.70;;;;;;5095251;28;20063;-69
2021/04/18 07:34:17;;;;;;;9.35;7.80;;;7.70;70.50;;;;;;5110979;28;20089;-70
2021/04/18 07:36:44;;;;;;;9.00;8.07;;;7.80;70.30;;;;;;5092974;28;20052;-73
2021/04/18 07:39:11;;;;;;;8.35;7.45;;;7.80;70.40;;;;;;5072720;28;20067;-71
2021/04/18 07:41:41;;;;;;;9.15;8.25;;;8.00;70.20;;;;;;5090843;28;20036;-71
2021/04/18 07:44:14;;;;;;;10.05;8.20;;;8.00;70.10;;;;;;5101677;28;20035;-71
2021/04/18 07:46:48;;;;;;;10.52;8.45;;;8.10;70.00;;;;;;5089856;28;20068;-71
2021/04/18 07:49:14;;;;;;;9.73;8.23;;;8.20;70.30;;;;;;5089269;28;20120;-70
2021/04/18 07:51:45;;;;;;;9.07;8.18;;;8.30;70.20;;;;;;5093058;28;20039;-69
2021/04/18 07:54:12;;;;;;;9.18;8.15;;;8.30;69.90;;;;;;5083555;28;20037;-71
2021/04/18 07:56:41;;;;;;;9.43;8.43;;;8.40;69.90;;;;;;5075831;28;20052;-72
2021/04/18 07:59:06;;;;;;;8.93;7.88;;;8.50;69.80;;;;;;5091195;28;20569;-75
2021/04/18 08:01:32;;;;;;;9.88;8.48;;;8.50;69.80;;;;;;5092572;28;20051;-74
2021/04/18 08:03:58;;;;;;;10.18;8.23;;;8.60;69.80;;;;;;5109727;28;20173;-76
2021/04/18 08:06:25;;;;;;;9.30;8.00;;;8.60;69.60;;;;;;5079898;28;20043;-76
2021/04/18 08:08:52;;;;;;;10.68;9.07;;;8.50;69.50;;;;;;5088148;28;20043;-77
2021/04/18 08:11:20;;;;;;;13.48;9.30;;;8.60;69.60;;;;;;5091147;28;20452;-71
2021/04/18 08:13:48;;;;;;;7.00;4.90;;;8.70;70.10;;;;;;5083767;28;20047;-73
2021/04/18 08:16:14;;;;;;;7.43;6.45;;;9.20;70.60;;;;;;5082142;28;20051;-74
2021/04/18 08:18:44;;;;;;;9.18;7.53;;;9.40;70.00;;;;;;5082868;28;20044;-73
2021/04/18 08:21:22;;;;;;;11.05;8.27;;;9.40;69.50;;;;;;5072885;28;20055;-77
2021/04/18 08:23:48;;;;;;;10.18;8.85;;;9.40;70.00;;;;;;5083874;28;20105;-77
2021/04/18 08:26:17;;;;;;;10.30;9.13;;;9.50;70.40;;;;;;5085862;28;20056;-72
2021/04/18 08:29:07;;;;;;;12.90;8.90;;;9.60;70.60;;;;;;5072337;28;20047;-77
2021/04/18 08:31:54;;;;;;;10.18;8.95;;;9.70;71.70;;;;;;5058698;28;20186;-75
2021/04/18 08:34:25;;;;;;;11.13;8.68;;;9.70;71.50;;;;;;5075020;28;20068;-77
2021/04/18 08:36:52;;;;;;;13.40;9.18;;;9.80;71.00;;;;;;5073891;28;20045;-78
2021/04/18 08:39:31;;;;;;;12.30;8.32;;;9.90;70.70;;;;;;5084045;28;20118;-72
2021/04/18 08:41:59;;;;;;;11.00;9.02;;;10.00;70.40;;;;;;5085570;28;20071;-74
2021/04/18 08:44:27;;;;;;;10.57;8.75;;;10.00;70.40;;;;;;5092161;28;20057;-78
2021/04/18 08:47:01;;;;;;;11.55;8.95;;;10.10;70.30;;;;;;5070128;28;20052;-81
2021/04/18 08:49:49;;;;;;;15.20;9.45;;;10.20;70.50;;;;;;5074419;28;20036;-73
2021/04/18 08:52:16;;;;;;;9.40;8.40;;;10.30;70.60;;;;;;5059183;28;20075;-78
2021/04/18 08:54:43;;;;;;;7.05;5.70;;;10.50;70.30;;;;;;5090955;28;20032;-76
2021/04/18 08:57:11;;;;;;;6.60;5.55;;;10.90;70.30;;;;;;5055518;28;20059;-75
2021/04/18 08:59:38;;;;;;;8.35;6.65;;;11.20;69.50;;;;;;5074151;28;20044;-74
2021/04/18 09:02:06;;;;;;;9.38;7.13;;;11.50;68.60;;;;;;5073702;28;20035;-76
2021/04/18 09:04:34;;;;;;;10.07;7.05;;;11.60;68.10;;;;;;5071999;28;20226;-75
2021/04/18 09:07:00;;;;;;;8.65;7.50;;;11.70;67.70;;;;;;5089110;28;20044;-76
2021/04/18 09:09:26;;;;;;;11.73;8.27;;;11.70;67.40;;;;;;5082197;28;20044;-76
2021/04/18 09:11:52;;;;;;;10.98;8.43;;;11.70;67.40;;;;;;5075533;28;20148;-76
2021/04/18 09:14:29;;;;;;;10.65;8.10;;;11.70;67.00;;;;;;5081977;28;20127;-74
2021/04/18 09:17:30;;;;;;;9.60;5.88;;;11.80;66.60;;;;;;5071422;28;20046;-79
2021/04/18 09:19:59;;;;;;;9.30;7.30;;;11.80;66.70;;;;;;5091013;28;20067;-78
2021/04/18 09:22:31;;;;;;;14.18;7.85;;;11.90;65.90;;;;;;5091637;28;20131;-75
2021/04/18 09:25:09;;;;;;;11.23;7.70;;;11.90;65.40;;;;;;5073063;28;20043;-77
2021/04/18 09:27:38;;;;;;;11.75;7.55;;;12.00;65.10;;;;;;5089638;28;20467;-75
2021/04/18 09:30:11;;;;;;;8.70;7.32;;;12.00;65.00;;;;;;5073149;28;20043;-75
2021/04/18 09:32:38;;;;;;;10.48;7.00;;;12.10;64.90;;;;;;5091123;28;20152;-75
2021/04/18 09:35:06;;;;;;;12.65;7.43;;;12.20;64.80;;;;;;5056882;28;20484;-74
2021/04/18 09:37:53;;;;;;;9.70;6.78;;;12.30;64.60;;;;;;5090642;28;20139;-74
2021/04/18 09:40:19;;;;;;;10.60;7.53;;;12.40;64.40;;;;;;5091825;28;20107;-75
2021/04/18 09:42:48;;;;;;;9.45;7.95;;;12.50;64.40;;;;;;5058098;28;20480;-75
2021/04/18 09:45:14;;;;;;;9.10;7.55;;;12.60;64.50;;;;;;5091867;28;20032;-75
2021/04/18 09:47:41;;;;;;;10.18;7.82;;;12.70;64.30;;;;;;5074625;28;20052;-75
2021/04/18 09:50:18;;;;;;;10.30;7.60;;;12.80;64.00;;;;;;5090038;28;20071;-75
2021/04/18 09:52:45;;;;;;;12.55;7.35;;;13.00;64.40;;;;;;5090941;28;20085;-74
2021/04/18 09:55:12;;;;;;;9.90;8.18;;;13.10;64.00;;;;;;5073647;28;20142;-75
2021/04/18 09:57:56;;;;;;;8.52;6.97;;;13.20;63.80;;;;;;5091264;28;20047;-74
2021/04/18 10:00:30;;;;;;;9.05;7.18;;;13.40;63.30;;;;;;5071484;28;20674;-75
2021/04/18 10:03:09;;;;;;;10.55;7.22;;;13.50;63.60;;;;;;5092012;28;20044;-75
2021/04/18 10:05:37;;;;;;;9.13;7.38;;;13.60;63.60;;;;;;5090716;28;20455;-75
2021/04/18 10:08:17;;;;;;;11.32;7.80;;;13.70;63.40;;;;;;5089881;28;20032;-77
2021/04/18 10:10:43;;;;;;;10.75;6.85;;;13.90;63.30;;;;;;5091736;28;20040;-76
2021/04/18 10:13:09;;;;;;;8.23;6.75;;;14.10;63.00;;;;;;5090160;28;20054;-76
2021/04/18 10:15:50;;;;;;;8.65;7.15;;;14.20;62.80;;;;;;5073690;28;20440;-75
2021/04/18 10:18:18;;;;;;;9.18;7.78;;;14.40;62.70;;;;;;5089996;28;20336;-75
2021/04/18 10:20:43;;;;;;;8.65;6.95;;;14.50;63.20;;;;;;5073284;28;20083;-74
2021/04/18 10:23:10;;;;;;;11.32;7.78;;;14.70;62.30;;;;;;5089636;28;20157;-75
2021/04/18 10:25:37;;;;;;;8.60;6.88;;;14.80;62.00;;;;;;5073435;28;20040;-74
2021/04/18 10:28:03;;;;;;;11.27;6.93;;;15.00;61.70;;;;;;5090702;28;20408;-77
2021/04/18 10:30:29;;;;;;;10.00;7.82;;;15.20;61.70;;;;;;5056531;28;20135;-75
2021/04/18 10:32:55;;;;;;;11.90;7.70;;;15.40;61.20;;;;;;5090514;28;20539;-74
2021/04/18 10:35:21;;;;;;;11.60;7.97;;;15.50;61.00;;;;;;5089726;28;20169;-74
2021/04/18 10:37:47;;;;;;;10.27;7.40;;;15.70;60.70;;;;;;5090479;28;20036;-75
2021/04/18 10:40:14;;;;;;;9.68;7.47;;;15.90;60.40;;;;;;5071843;28;20036;-74
2021/04/18 10:42:40;;;;;;;10.15;7.35;;;16.00;60.20;;;;;;5073479;28;20105;-74
2021/04/18 10:45:08;;;;;;;10.73;7.07;;;16.20;60.00;;;;;;5057169;28;20060;-77
2021/04/18 10:47:34;;;;;;;9.23;6.57;;;16.50;59.90;;;;;;5073606;28;20044;-75
2021/04/18 10:50:02;;;;;;;8.48;5.75;;;16.70;59.60;;;;;;5090076;28;20373;-76
2021/04/18 10:52:28;;;;;;;7.57;6.00;;;16.90;59.10;;;;;;5090200;28;20172;-74
2021/04/18 10:54:54;;;;;;;8.93;5.15;;;17.10;58.70;;;;;;5056411;28;20541;-75
2021/04/18 10:57:19;;;;;;;7.00;5.28;;;17.20;58.20;;;;;;5088987;28;20118;-75
2021/04/18 10:59:45;;;;;;;8.20;5.70;;;17.50;58.00;;;;;;5089737;28;20040;-75
2021/04/18 11:02:11;;;;;;;11.13;5.15;;;17.70;57.90;;;;;;5072208;28;20206;-75
2021/04/18 11:04:37;;;;;;;7.65;5.05;;;17.90;57.40;;;;;;5072912;28;20447;-75
2021/04/18 11:07:03;;;;;;;8.73;6.00;;;18.00;56.80;;;;;;5088224;28;20044;-75
2021/04/18 11:09:29;;;;;;;9.05;6.13;;;18.20;56.30;;;;;;5055782;28;20052;-80
2021/04/18 11:11:55;;;;;;;7.80;6.25;;;18.40;55.40;;;;;;5067545;28;20032;-85
2021/04/18 11:14:21;;;;;;;8.85;6.05;;;18.50;53.90;;;;;;5081633;28;20072;-81
2021/04/18 11:16:47;;;;;;;8.50;5.15;;;18.70;53.30;;;;;;5079334;28;20090;-76
2021/04/18 11:19:13;;;;;;;8.30;6.10;;;18.90;52.50;;;;;;5077045;28;20488;-74
2021/04/18 11:21:40;;;;;;;12.68;6.43;;;18.90;51.60;;;;;;5071848;28;20076;-75
2021/04/18 11:24:06;;;;;;;8.93;6.85;;;19.10;51.80;;;;;;5089760;28;20491;-76
2021/04/18 11:26:31;;;;;;;10.05;6.25;;;19.30;51.00;;;;;;5070649;28;20655;-71
2021/04/18 11:28:57;;;;;;;6.97;4.80;;;19.40;50.80;;;;;;5089373;28;20121;-76
2021/04/18 11:31:23;;;;;;;8.60;5.72;;;19.70;50.00;;;;;;5054230;28;20063;-72
2021/04/18 11:33:49;;;;;;;9.48;5.45;;;19.90;48.90;;;;;;5089905;28;20044;-71
2021/04/18 11:36:18;;;;;;;9.85;5.15;;;20.10;48.30;;;;;;5089365;28;20043;-71
2021/04/18 11:38:44;;;;;;;8.48;5.40;;;20.30;48.30;;;;;;5090026;28;20119;-71
2021/04/18 11:41:10;;;;;;;8.00;6.05;;;20.50;47.70;;;;;;5078798;28;20115;-74
2021/04/18 11:43:36;;;;;;;5.50;4.25;;;20.80;48.20;;;;;;5068478;28;20048;-72
2021/04/18 11:46:03;;;;;;;7.57;5.70;;;20.90;46.70;;;;;;5069288;28;20040;-76
2021/04/18 11:48:29;;;;;;;8.38;5.22;;;21.10;45.70;;;;;;5051568;28;20217;-74
2021/04/18 11:50:54;;;;;;;7.72;5.25;;;21.30;45.70;;;;;;5068825;28;20207;-74
2021/04/18 11:53:20;;;;;;;7.85;4.82;;;21.40;45.00;;;;;;5068126;28;20048;-74
2021/04/18 11:55:46;;;;;;;7.47;5.03;;;21.60;43.90;;;;;;5083305;28;20506;-74
2021/04/18 11:58:12;;;;;;;9.32;5.82;;;21.80;43.50;;;;;;5088477;28;20138;-75
2021/04/18 12:00:38;;;;;;;8.15;5.60;;;21.90;43.70;;;;;;5087241;28;20391;-83
2021/04/18 12:03:03;;;;;;;8.10;5.68;;;22.10;43.20;;;;;;5084132;28;20040;-77
2021/04/18 12:05:29;;;;;;;8.77;6.25;;;22.30;42.00;;;;;;5081326;28;20486;-76
2021/04/18 12:07:55;;;;;;;7.97;5.50;;;22.40;42.00;;;;;;5090019;28;20047;-76
2021/04/18 12:10:20;;;;;;;6.57;4.68;;;22.50;41.30;;;;;;5071326;28;20047;-76
2021/04/18 12:12:46;;;;;;;4.90;4.30;;;22.50;40.40;;;;;;5088861;28;20052;-75
2021/04/18 12:15:13;;;;;;;7.07;4.32;;;22.50;39.80;;;;;;5088437;28;20093;-79
2021/04/18 12:17:38;;;;;;;6.28;4.20;;;22.60;39.40;;;;;;5071788;28;20368;-72
2021/04/18 12:20:11;;;;;;;5.93;3.83;;;22.70;39.20;;;;;;5080250;28;20039;-77
2021/04/18 12:22:37;;;;;;;5.28;4.13;;;22.80;38.70;;;;;;5075965;28;20082;-72
2021/04/18 12:25:08;;;;;;;5.90;4.20;;;22.70;38.00;;;;;;5080996;28;20040;-73
2021/04/18 12:27:33;;;;;;;6.60;4.28;;;22.70;37.50;;;;;;5083548;28;20063;-74
2021/04/18 12:29:59;;;;;;;5.72;3.97;;;22.50;37.00;;;;;;5083232;28;20044;-73
2021/04/18 12:32:25;;;;;;;6.65;4.32;;;22.40;37.20;;;;;;5081240;28;20121;-75
2021/04/18 12:34:51;;;;;;;7.18;4.43;;;22.20;37.20;;;;;;5090604;28;20051;-83
2021/04/18 12:37:17;;;;;;;10.43;4.90;;;22.10;38.00;;;;;;5075766;28;20557;-86
2021/04/18 12:39:45;;;;;;;9.88;5.63;;;22.00;37.00;;;;;;5069734;28;20505;-79
2021/04/18 12:42:11;;;;;;;6.68;4.20;;;22.00;36.80;;;;;;5062902;28;20115;-78
2021/04/18 12:44:37;;;;;;;7.30;4.28;;;22.00;36.80;;;;;;5052343;28;20116;-78
2021/04/18 12:47:05;;;;;;;7.15;4.45;;;22.10;36.70;;;;;;5052523;28;20127;-78
2021/04/18 12:49:30;;;;;;;7.38;4.47;;;22.20;36.70;;;;;;5076462;28;20044;-80